createdAt,value
2019-04-19T00:00:42.585Z,9.17
2019-04-19T00:03:19.116Z,10.40
2019-04-19T00:06:13.746Z,9.80
2019-04-19T00:08:58.636Z,9.53
2019-04-19T00:11:22.238Z,10.63
2019-04-19T00:13:43.039Z,11.00
2019-04-19T00:16:13.171Z,11.00
2019-04-19T00:19:10.459Z,11.03
2019-04-19T00:21:33.767Z,9.63
2019-04-19T00:23:51.632Z,10.03
2019-04-19T00:26:20.956Z,10.53
2019-04-19T00:28:54.892Z,9.97
2019-04-19T00:31:34.127Z,10.20
2019-04-19T00:33:57.197Z,10.80
2019-04-19T00:39:24.437Z,11.07
2019-04-19T00:42:01.527Z,10.80
2019-04-19T00:44:33.030Z,11.20
2019-04-19T00:47:01.490Z,10.47
2019-04-19T00:49:26.093Z,11.13
2019-04-19T00:52:00.158Z,11.07
2019-04-19T00:54:27.266Z,9.97
2019-04-19T00:56:57.868Z,11.80
2019-04-19T00:59:22.809Z,10.90
2019-04-19T01:01:59.201Z,11.30
2019-04-19T01:04:28.122Z,10.87
2019-04-19T01:07:00.532Z,10.67
2019-04-19T01:09:38.819Z,10.70
2019-04-19T01:12:15.443Z,10.60
2019-04-19T01:14:50.581Z,11.00
2019-04-19T01:17:29.846Z,10.40
2019-04-19T01:19:51.935Z,11.20
2019-04-19T01:22:21.848Z,10.60
2019-04-19T01:24:50.132Z,10.93
2019-04-19T01:27:24.927Z,9.70
2019-04-19T01:29:55.935Z,10.23
2019-04-19T01:32:26.545Z,10.73
2019-04-19T01:35:00.915Z,10.80
2019-04-19T01:37:29.912Z,10.80
2019-04-19T01:40:15.871Z,10.60
2019-04-19T01:42:50.671Z,10.90
2019-04-19T01:45:34.226Z,11.00
2019-04-19T01:48:29.755Z,11.10
2019-04-19T01:51:06.181Z,10.70
2019-04-19T01:53:34.509Z,10.20
2019-04-19T01:55:59.210Z,10.40
2019-04-19T01:58:24.397Z,10.83
2019-04-19T02:00:58.311Z,10.33
2019-04-19T02:03:33.437Z,10.10
2019-04-19T02:06:05.133Z,11.33
2019-04-19T02:08:33.359Z,10.80
2019-04-19T02:11:56.546Z,11.10
2019-04-19T02:14:23.655Z,10.97
2019-04-19T02:16:55.876Z,10.30
2019-04-19T02:19:25.097Z,10.80
2019-04-19T02:21:53.979Z,11.33
2019-04-19T02:24:30.608Z,10.23
2019-04-19T02:27:02.051Z,11.27
2019-04-19T02:29:31.309Z,10.87
2019-04-19T02:34:54.367Z,11.50
2019-04-19T02:37:24.651Z,11.33
2019-04-19T02:42:44.551Z,11.47
2019-04-19T02:45:03.788Z,10.70
2019-04-19T02:50:12.969Z,11.13
2019-04-19T02:55:12.695Z,10.63
2019-04-19T02:57:48.298Z,11.80
2019-04-19T03:07:38.553Z,12.03
2019-04-19T03:10:12.909Z,11.40
2019-04-19T03:13:00.301Z,11.60
2019-04-19T03:15:39.339Z,11.73
2019-04-19T03:18:11.962Z,12.70
2019-04-19T03:20:30.295Z,11.77
2019-04-19T03:23:03.069Z,10.40
2019-04-19T03:25:31.285Z,11.70
2019-04-19T03:28:03.687Z,11.10
2019-04-19T03:30:42.047Z,10.67
2019-04-19T03:33:24.965Z,12.10
2019-04-19T03:35:50.060Z,12.20
2019-04-19T03:38:17.227Z,11.00
2019-04-19T03:40:50.807Z,11.80
2019-04-19T03:43:26.566Z,12.33
2019-04-19T03:45:57.678Z,11.87
2019-04-19T03:48:29.664Z,11.73
2019-04-19T03:51:01.869Z,11.93
2019-04-19T03:53:30.999Z,11.90
2019-04-19T03:56:06.247Z,10.97
2019-04-19T03:58:16.938Z,10.90
2019-04-19T04:00:45.087Z,11.70
2019-04-19T04:03:24.358Z,11.60
2019-04-19T04:05:49.030Z,12.07
2019-04-19T04:08:25.813Z,11.47
2019-04-19T04:11:08.132Z,12.07
2019-04-19T04:14:07.462Z,10.63
2019-04-19T04:16:33.632Z,12.30
2019-04-19T04:18:57.494Z,11.87
2019-04-19T04:21:34.502Z,11.70
2019-04-19T04:24:12.119Z,11.00
2019-04-19T04:26:40.386Z,12.37
2019-04-19T04:29:12.108Z,10.60
2019-04-19T04:31:45.815Z,11.87
2019-04-19T04:34:23.083Z,11.27
2019-04-19T04:36:54.499Z,11.13
2019-04-19T04:39:13.430Z,11.37
2019-04-19T04:41:46.029Z,10.57
2019-04-19T04:44:33.306Z,10.20
2019-04-19T04:47:10.221Z,11.67
2019-04-19T04:49:59.365Z,11.63
2019-04-19T04:52:21.293Z,10.57
2019-04-19T04:54:46.672Z,11.73
2019-04-19T04:57:36.902Z,11.77
2019-04-19T05:00:00.655Z,10.60
2019-04-19T05:02:46.186Z,11.40
2019-04-19T05:05:19.783Z,11.57
2019-04-19T05:07:53.186Z,13.07
2019-04-19T05:10:25.920Z,10.60
2019-04-19T05:13:10.707Z,11.07
2019-04-19T05:15:41.670Z,11.80
2019-04-19T05:18:04.967Z,10.73
2019-04-19T05:20:30.282Z,11.63
2019-04-19T05:23:05.756Z,11.13
2019-04-19T05:25:41.432Z,11.40
2019-04-19T05:28:09.576Z,11.87
2019-04-19T05:30:33.143Z,11.30
2019-04-19T05:33:04.747Z,11.73
2019-04-19T05:35:45.182Z,10.60
2019-04-19T05:38:12.423Z,11.80
2019-04-19T05:40:47.452Z,12.43
2019-04-19T05:43:52.590Z,10.80
2019-04-19T05:46:10.137Z,12.70
2019-04-19T05:48:28.456Z,12.33
2019-04-19T05:51:16.663Z,11.90
2019-04-19T05:53:27.922Z,10.80
2019-04-19T05:55:49.844Z,12.40
2019-04-19T05:58:31.405Z,11.30
2019-04-19T06:01:04.621Z,10.10
2019-04-19T06:03:32.516Z,11.70
2019-04-19T06:06:26.198Z,12.80
2019-04-19T06:08:30.813Z,11.70
2019-04-19T06:11:01.199Z,11.97
2019-04-19T06:13:29.758Z,11.40
2019-04-19T06:16:17.769Z,11.10
2019-04-19T06:18:46.051Z,9.93
2019-04-19T06:21:24.770Z,11.37
2019-04-19T06:24:01.234Z,11.50
2019-04-19T06:31:32.549Z,11.23
2019-04-19T06:33:57.651Z,11.50
2019-04-19T06:36:14.548Z,11.57
2019-04-19T06:38:44.819Z,12.10
2019-04-19T06:41:20.408Z,11.23
2019-04-19T06:43:58.951Z,10.20
2019-04-19T06:46:32.693Z,11.20
2019-04-19T06:48:59.662Z,10.87
2019-04-19T06:51:32.801Z,10.10
2019-04-19T06:53:58.827Z,11.00
2019-04-19T06:56:31.839Z,10.90
2019-04-19T06:59:07.128Z,11.80
2019-04-19T07:01:38.299Z,11.10
2019-04-19T07:03:59.971Z,11.57
2019-04-19T07:06:43.918Z,11.30
2019-04-19T07:09:26.529Z,11.50
2019-04-19T07:11:59.082Z,12.10
2019-04-19T07:14:11.897Z,11.77
2019-04-19T07:16:59.712Z,11.80
2019-04-19T07:19:26.105Z,12.30
2019-04-19T07:21:55.246Z,12.73
2019-04-19T07:24:33.950Z,12.00
2019-04-19T07:26:57.876Z,11.80
2019-04-19T07:29:13.221Z,11.47
2019-04-19T07:31:47.312Z,10.60
2019-04-19T07:34:35.022Z,12.17
2019-04-19T07:37:11.981Z,12.70
2019-04-19T07:39:38.868Z,11.47
2019-04-19T07:42:12.116Z,12.57
2019-04-19T07:44:38.731Z,11.67
2019-04-19T07:47:16.317Z,11.87
2019-04-19T07:49:40.489Z,11.80
2019-04-19T07:52:14.440Z,11.70
2019-04-19T07:54:38.628Z,12.57
2019-04-19T07:57:41.730Z,12.27
2019-04-19T08:00:09.818Z,12.60
2019-04-19T08:05:11.911Z,12.13
2019-04-19T08:10:10.811Z,12.00
2019-04-19T08:27:40.207Z,11.80
2019-04-19T08:30:04.478Z,12.27
2019-04-19T08:32:34.355Z,11.73
2019-04-19T08:35:09.392Z,12.33
2019-04-19T08:37:41.006Z,11.93
2019-04-19T08:40:35.350Z,13.80
2019-04-19T08:43:03.405Z,12.40
2019-04-19T08:45:20.630Z,12.23
2019-04-19T08:48:11.872Z,11.80
2019-04-19T08:50:53.117Z,12.73
2019-04-19T08:53:35.973Z,11.33
2019-04-19T08:56:07.966Z,11.23
2019-04-19T08:58:36.065Z,14.03
2019-04-19T09:01:34.773Z,12.07
2019-04-19T09:03:51.217Z,12.73
2019-04-19T09:06:56.570Z,11.23
2019-04-19T09:08:48.721Z,12.50
2019-04-19T09:11:22.510Z,13.10
2019-04-19T09:13:55.859Z,12.90
2019-04-19T09:16:25.569Z,12.80
2019-04-19T09:19:03.465Z,11.70
2019-04-19T09:21:21.870Z,12.77
2019-04-19T09:23:48.835Z,12.70
2019-04-19T09:26:30.809Z,12.80
2019-04-19T09:29:14.338Z,12.30
2019-04-19T09:31:34.482Z,12.57
2019-04-19T09:33:54.806Z,11.90
2019-04-19T09:36:30.531Z,12.30
2019-04-19T09:39:08.392Z,11.97
2019-04-19T09:41:34.689Z,12.37
2019-04-19T09:44:08.179Z,12.57
2019-04-19T09:46:28.173Z,13.50
2019-04-19T09:49:13.110Z,12.27
2019-04-19T09:51:47.880Z,12.03
2019-04-19T09:54:19.158Z,12.70
2019-04-19T09:56:50.634Z,11.40
2019-04-19T09:59:14.279Z,12.07
2019-04-19T10:01:43.825Z,12.00
2019-04-19T10:04:09.384Z,12.37
2019-04-19T10:06:40.661Z,12.43
2019-04-19T10:09:17.070Z,12.13
2019-04-19T10:11:46.188Z,12.87
2019-04-19T10:14:15.599Z,11.97
2019-04-19T10:16:46.940Z,12.80
2019-04-19T10:19:16.931Z,12.60
2019-04-19T10:21:49.324Z,12.30
2019-04-19T10:24:22.580Z,11.23
2019-04-19T10:26:57.327Z,12.30
2019-04-19T10:29:32.435Z,12.83
2019-04-19T10:32:06.601Z,12.63
2019-04-19T10:34:36.687Z,12.07
2019-04-19T10:37:06.477Z,12.60
2019-04-19T10:39:37.332Z,10.70
2019-04-19T10:42:10.225Z,11.60
2019-04-19T10:44:40.315Z,11.80
2019-04-19T10:47:10.354Z,11.17
2019-04-19T10:49:46.998Z,11.50
2019-04-19T10:52:25.612Z,10.80
2019-04-19T10:54:57.306Z,12.17
2019-04-19T10:57:27.690Z,12.97
2019-04-19T11:00:01.957Z,12.07
2019-04-19T11:02:34.049Z,11.20
2019-04-19T11:05:07.051Z,11.73
2019-04-19T11:07:39.574Z,13.30
2019-04-19T11:10:10.096Z,11.73
2019-04-19T11:12:40.855Z,12.17
2019-04-19T11:15:11.018Z,11.73
2019-04-19T11:17:41.441Z,11.93
2019-04-19T11:20:24.703Z,11.63
2019-04-19T11:22:44.438Z,11.57
2019-04-19T11:25:14.473Z,11.03
2019-04-19T11:27:44.856Z,11.87
2019-04-19T11:30:29.254Z,11.97
2019-04-19T11:32:59.447Z,10.17
2019-04-19T11:35:31.632Z,9.43
2019-04-19T11:38:04.820Z,10.40
2019-04-19T11:40:35.355Z,9.57
2019-04-19T11:43:05.389Z,10.43
2019-04-19T11:45:35.796Z,11.20
2019-04-19T11:48:05.755Z,10.80
2019-04-19T11:50:35.865Z,10.40
2019-04-19T11:53:12.544Z,9.80
2019-04-19T11:55:44.451Z,9.57
2019-04-19T11:58:16.722Z,8.80
2019-04-19T12:00:58.147Z,10.40
2019-04-19T12:03:29.936Z,9.50
2019-04-19T12:06:00.403Z,9.57
2019-04-19T12:08:33.135Z,9.40
2019-04-19T12:11:04.218Z,8.73
2019-04-19T12:13:36.436Z,10.70
2019-04-19T12:16:06.235Z,9.67
2019-04-19T12:18:38.795Z,9.07
2019-04-19T12:21:11.370Z,8.93
2019-04-19T12:23:41.753Z,9.03
2019-04-19T12:26:11.638Z,10.17
2019-04-19T12:28:41.751Z,9.97
2019-04-19T12:31:11.588Z,10.20
2019-04-19T12:33:41.754Z,8.87
2019-04-19T12:36:12.826Z,10.90
2019-04-19T12:38:44.130Z,9.60
2019-04-19T12:41:14.298Z,9.00
2019-04-19T12:43:45.789Z,8.70
2019-04-19T12:46:16.918Z,8.50
2019-04-19T12:48:47.904Z,9.33
2019-04-19T12:51:19.249Z,8.80
2019-04-19T12:53:50.720Z,8.50
2019-04-19T12:56:22.390Z,9.93
2019-04-19T12:58:53.861Z,9.77
2019-04-19T13:01:26.055Z,9.80
2019-04-19T13:04:00.401Z,10.17
2019-04-19T13:06:31.850Z,9.13
2019-04-19T13:09:01.724Z,9.37
2019-04-19T13:11:33.174Z,8.73
2019-04-19T13:14:05.749Z,9.20
2019-04-19T13:16:36.588Z,7.97
2019-04-19T13:19:08.241Z,9.30
2019-04-19T13:21:38.609Z,8.97
2019-04-19T13:24:08.838Z,9.40
2019-04-19T13:26:41.194Z,8.43
2019-04-19T13:29:11.477Z,7.80
2019-04-19T13:31:43.230Z,8.90
2019-04-19T13:34:13.455Z,8.70
2019-04-19T13:36:49.000Z,7.87
2019-04-19T13:39:32.041Z,8.80
2019-04-19T13:42:06.318Z,8.70
2019-04-19T13:44:36.690Z,7.93
2019-04-19T13:47:06.822Z,8.47
2019-04-19T13:49:36.891Z,8.90
2019-04-19T13:52:08.299Z,8.70
2019-04-19T13:54:39.191Z,7.90
2019-04-19T13:57:10.094Z,7.87
2019-04-19T13:59:50.174Z,7.80
2019-04-19T14:02:12.663Z,8.43
2019-04-19T14:04:43.746Z,8.10
2019-04-19T14:07:14.880Z,8.53
2019-04-19T14:09:47.654Z,7.53
2019-04-19T14:12:18.722Z,7.30
2019-04-19T14:14:48.940Z,6.90
2019-04-19T14:17:19.906Z,7.60
2019-04-19T14:19:49.453Z,6.97
2019-04-19T14:22:19.298Z,6.30
2019-04-19T14:24:50.957Z,7.23
2019-04-19T14:27:21.483Z,6.90
2019-04-19T14:29:51.344Z,7.00
2019-04-19T14:32:21.208Z,7.20
2019-04-19T14:34:51.930Z,7.70
2019-04-19T14:37:22.437Z,6.57
2019-04-19T14:39:52.466Z,6.90
2019-04-19T14:42:25.057Z,7.30
2019-04-19T14:44:55.615Z,6.83
2019-04-19T14:47:26.699Z,7.93
2019-04-19T14:49:56.795Z,7.80
2019-04-19T14:52:28.044Z,7.50
2019-04-19T14:55:01.294Z,6.70
2019-04-19T14:57:32.400Z,6.30
2019-04-19T15:00:03.240Z,6.67
2019-04-19T15:02:51.721Z,6.80
2019-04-19T15:05:35.280Z,6.00
2019-04-19T15:08:06.302Z,6.80
2019-04-19T15:10:37.591Z,6.63
2019-04-19T15:13:07.391Z,6.23
2019-04-19T15:15:37.805Z,6.00
2019-04-19T15:18:08.799Z,7.40
2019-04-19T15:20:38.780Z,7.23
2019-04-19T15:23:08.592Z,6.23
2019-04-19T15:25:38.377Z,7.47
2019-04-19T15:28:08.846Z,6.60
2019-04-19T15:30:41.891Z,7.40
2019-04-19T15:33:10.410Z,7.00
2019-04-19T15:35:40.009Z,6.77
2019-04-19T15:38:09.891Z,7.50
2019-04-19T15:40:40.401Z,5.80
2019-04-19T15:43:10.739Z,6.70
2019-04-19T15:45:41.120Z,7.10
2019-04-19T15:48:10.998Z,7.10
2019-04-19T15:50:42.904Z,7.30
2019-04-19T15:53:12.642Z,6.77
2019-04-19T15:55:44.198Z,6.63
2019-04-19T15:58:14.719Z,5.83
2019-04-19T16:00:50.822Z,6.47
2019-04-19T16:03:38.728Z,6.70
2019-04-19T16:06:14.219Z,6.87
2019-04-19T16:09:01.791Z,7.07
2019-04-19T16:11:46.918Z,8.47
2019-04-19T16:14:17.686Z,7.60
2019-04-19T16:16:47.558Z,8.10
2019-04-19T16:19:20.524Z,7.00
2019-04-19T16:21:55.094Z,6.47
2019-04-19T16:24:23.156Z,7.20
2019-04-19T16:26:53.334Z,7.70
2019-04-19T16:29:33.679Z,7.40
2019-04-19T16:31:54.522Z,7.23
2019-04-19T16:34:27.164Z,6.93
2019-04-19T16:36:58.264Z,7.77
2019-04-19T16:39:30.118Z,7.17
2019-04-19T16:42:00.897Z,7.00
2019-04-19T16:44:31.855Z,7.20
2019-04-19T16:47:01.804Z,7.70
2019-04-19T16:49:32.436Z,8.00
2019-04-19T16:52:02.751Z,7.50
2019-04-19T16:54:36.286Z,7.00
2019-04-19T16:57:15.926Z,7.90
2019-04-19T16:59:37.807Z,6.97
2019-04-19T17:02:08.998Z,7.90
2019-04-19T17:04:38.841Z,7.73
2019-04-19T17:07:08.847Z,7.40
2019-04-19T17:09:40.773Z,7.20
2019-04-19T17:12:10.834Z,7.00
2019-04-19T17:14:41.006Z,7.93
2019-04-19T17:17:28.781Z,7.60
2019-04-19T17:20:00.516Z,6.87
2019-04-19T17:22:43.016Z,6.93
2019-04-19T17:25:14.819Z,6.63
2019-04-19T17:27:45.186Z,7.77
2019-04-19T17:30:20.183Z,7.53
2019-04-19T17:32:50.335Z,7.40
2019-04-19T17:35:20.488Z,6.60
2019-04-19T17:37:50.514Z,7.03
2019-04-19T17:40:20.690Z,7.30
2019-04-19T17:42:50.798Z,7.10
2019-04-19T17:45:20.659Z,7.70
2019-04-19T17:47:54.491Z,8.20
2019-04-19T17:50:24.971Z,7.70
2019-04-19T17:52:55.223Z,7.87
2019-04-19T17:55:31.625Z,7.10
2019-04-19T17:57:57.070Z,7.40
2019-04-19T18:00:28.264Z,7.13
2019-04-19T18:03:01.282Z,7.47
2019-04-19T18:05:31.864Z,7.10
2019-04-19T18:08:02.156Z,7.00
2019-04-19T18:10:42.908Z,6.40
2019-04-19T18:13:03.658Z,8.40
2019-04-19T18:15:34.873Z,7.00
2019-04-19T18:18:10.032Z,7.90
2019-04-19T18:20:39.265Z,6.77
2019-04-19T18:23:21.388Z,7.27
2019-04-19T18:25:43.271Z,7.13
2019-04-19T18:28:14.918Z,7.63
2019-04-19T18:30:51.601Z,6.43
2019-04-19T18:33:20.193Z,6.60
2019-04-19T18:36:00.917Z,6.50
2019-04-19T18:38:28.062Z,6.60
2019-04-19T18:41:02.914Z,7.00
2019-04-19T18:43:41.639Z,7.20
2019-04-19T18:46:04.825Z,5.77
2019-04-19T18:48:35.681Z,7.00
2019-04-19T18:51:06.788Z,7.00
2019-04-19T18:53:45.101Z,5.90
2019-04-19T18:56:12.390Z,5.87
2019-04-19T18:58:41.019Z,5.53
2019-04-19T19:01:21.251Z,6.30
2019-04-19T19:03:46.218Z,5.77
2019-04-19T19:06:15.799Z,5.00
2019-04-19T19:08:52.588Z,6.17
2019-04-19T19:11:20.909Z,5.40
2019-04-19T19:13:49.406Z,6.03
2019-04-19T19:16:23.537Z,6.43
2019-04-19T19:18:53.949Z,5.30
2019-04-19T19:21:26.796Z,5.13
2019-04-19T19:24:18.372Z,5.60
2019-04-19T19:26:34.508Z,5.30
2019-04-19T19:28:58.701Z,6.23
2019-04-19T19:31:29.725Z,4.93
2019-04-19T19:34:03.634Z,5.43
2019-04-19T19:36:42.165Z,5.60
2019-04-19T19:39:16.573Z,4.93
2019-04-19T19:42:32.859Z,5.23
2019-04-19T19:44:31.052Z,6.63
2019-04-19T19:47:27.432Z,5.00
2019-04-19T19:49:48.408Z,5.30
2019-04-19T19:52:17.444Z,5.60
2019-04-19T19:54:54.253Z,4.90
2019-04-19T19:57:18.469Z,5.33
2019-04-19T19:59:37.781Z,5.23
2019-04-19T20:02:18.182Z,5.23
2019-04-19T20:04:40.529Z,4.80
2019-04-19T20:07:11.173Z,5.37
2019-04-19T20:09:40.788Z,5.27
2019-04-19T20:12:18.030Z,5.50
2019-04-19T20:14:43.507Z,5.93
2019-04-19T20:17:15.093Z,5.10
2019-04-19T20:19:48.272Z,5.17
2019-04-19T20:22:16.161Z,4.60
2019-04-19T20:24:59.331Z,4.80
2019-04-19T20:27:22.389Z,5.13
2019-04-19T20:29:55.514Z,4.63
2019-04-19T20:32:24.038Z,5.13
2019-04-19T20:34:52.559Z,5.60
2019-04-19T20:37:24.998Z,5.43
2019-04-19T20:39:57.261Z,5.20
2019-04-19T20:42:32.654Z,5.13
2019-04-19T20:45:04.646Z,5.10
2019-04-19T20:47:32.878Z,6.17
2019-04-19T20:50:16.283Z,5.40
2019-04-19T20:52:45.406Z,5.10
2019-04-19T20:55:28.458Z,5.93
2019-04-19T20:58:17.924Z,5.10
2019-04-19T21:00:37.622Z,5.23
2019-04-19T21:03:08.016Z,6.07
2019-04-19T21:05:42.663Z,4.93
2019-04-19T21:08:12.636Z,5.70
2019-04-19T21:10:49.916Z,5.20
2019-04-19T21:13:15.947Z,5.17
2019-04-19T21:15:52.005Z,5.33
2019-04-19T21:18:24.504Z,6.17
2019-04-19T21:20:54.867Z,5.37
2019-04-19T21:23:27.848Z,5.70
2019-04-19T21:26:00.410Z,4.90
2019-04-19T21:28:34.465Z,5.17
2019-04-19T21:31:02.848Z,5.40
2019-04-19T21:33:31.021Z,6.17
2019-04-19T21:36:05.737Z,6.00
2019-04-19T21:38:32.260Z,5.53
2019-04-19T21:41:12.146Z,5.77
2019-04-19T21:43:36.854Z,5.40
2019-04-19T21:46:05.586Z,5.90
2019-04-19T21:48:39.631Z,6.20
2019-04-19T21:51:10.825Z,6.00
2019-04-19T21:53:43.472Z,6.70
2019-04-19T21:56:16.075Z,6.10
2019-04-19T21:58:47.584Z,5.87
2019-04-19T22:01:17.001Z,5.90
2019-04-19T22:03:50.365Z,5.93
2019-04-19T22:06:24.082Z,6.10
2019-04-19T22:08:50.322Z,5.60
2019-04-19T22:11:20.578Z,6.57
2019-04-19T22:13:52.519Z,5.77
2019-04-19T22:16:31.372Z,8.80
2019-04-19T22:18:56.171Z,6.80
2019-04-19T22:21:30.519Z,6.20
2019-04-19T22:23:58.461Z,6.40
2019-04-19T22:26:32.833Z,6.90
2019-04-19T22:28:59.735Z,5.73
2019-04-19T22:31:33.992Z,6.70
2019-04-19T22:34:01.328Z,5.73
2019-04-19T22:36:40.042Z,5.83
2019-04-19T22:39:05.416Z,5.73
2019-04-19T22:41:34.857Z,4.83
2019-04-19T22:44:04.871Z,5.20
2019-04-19T22:46:41.584Z,4.73
2019-04-19T22:49:09.751Z,5.40
2019-04-19T22:51:38.393Z,5.73
2019-04-19T22:54:08.627Z,4.70
2019-04-19T22:56:52.080Z,4.60
2019-04-19T22:59:14.953Z,4.80
2019-04-19T23:01:57.342Z,5.53
2019-04-19T23:04:24.767Z,5.20
2019-04-19T23:06:58.839Z,6.47
2019-04-19T23:09:26.430Z,5.90
2019-04-19T23:11:57.497Z,5.30
2019-04-19T23:14:46.727Z,4.97
2019-04-19T23:17:19.808Z,5.00
2019-04-19T23:19:52.498Z,5.27
2019-04-19T23:22:30.820Z,5.10
2019-04-19T23:25:00.754Z,4.90
2019-04-19T23:27:36.765Z,5.27
2019-04-19T23:30:17.969Z,5.40
2019-04-19T23:32:45.784Z,4.90
2019-04-19T23:35:16.390Z,5.27
2019-04-19T23:37:47.250Z,5.10
2019-04-19T23:40:17.298Z,4.97
2019-04-19T23:42:49.212Z,5.07
2019-04-19T23:45:18.829Z,4.60
2019-04-19T23:47:51.837Z,4.93
2019-04-19T23:50:26.055Z,5.30
2019-04-19T23:52:57.446Z,4.67
2019-04-19T23:55:24.615Z,4.80
2019-04-19T23:57:56.253Z,5.07
